Ana Sayfa
METAR-TAF:

METAR-TAF

Havaalanları :

Harbin, Çin

Harbin Taiping Uluslararası Havalimanı

Enlem: 45-45N, Boylam: 126-46E, yükseklik: 143 m

Güncel hava durumu gözlemi

Rapor saat 20:00 UTC de 10 dakika önce yapıldı.
Rüzgar güney/güneydoğudan 8 kt
Sıcaklık -17°C
Nem 65%
Basınç 1027 hPa
Görüş mesafesi 10 km veya daha fazla
1500 m altında bulut yok ve kümülonimbus yok

METAR: ZYHB 242000Z 16004MPS CAVOK M17/M22 Q1027 NOSIG

Saat: 04:10 (20:10 UTC)

Tahmin

Rapor saat 15:09 UTC de 5 saat ve 1 dakika önce yapıldı.
Ayın 24'si saat 18 UTC'den ayın 25'si saat 18 UTC'ye kadar geçerli Tahmin
Rüzgar güneydan 8 kt
Görüş mesafesi: 4000 m
3300 ft yükseklikte az bulutlu
Toz Pusu

TAF: ZYHB 241509Z 2418/2518 18004MPS 4000 HZ FEW033 TXM06/06Z TNM20/20Z

4.000'den fazla havaalanı için hava durumu gözlemleri ve tahminleri (METAR ve TAF raporları).

Kullanılabilir istasyonlar harita üzerinde sarı ve kırmızı noktalarla gösterilir.

İstasyonun adını görmek için fareyi noktanın üzerinde gezdirin.

Sonrasında hava gözlem ve tahminlerini görmek için tıklayın.

Haritayı değiştirmek için: yaklaştırmak için siyah artı işaretli yeşil düğmeye ve uzaklaştırmak için de eksi işaretli düğmeye hızla tıklayın; bitişik haritalar için yeşil okları kullanın.


METAR-TAF: